Time;durP1;ratioP1;P1;durP2;ratioP2;P2;SDS_P1;SDS_P2;PMS_P1;PMS_P2;Temp;Humidity;BMP_temperature;BMP_pressure;BME280_temperature;BME280_humidity;BME280_pressure;Samples;Min_cycle;Max_cycle;Signal;HPM_P1;HPM_P2
2021/11/12 00:02:10;;;;;;;;;;;6.00;99.90;6.50;100044.00;;;;344772;28;83351;-86
2021/11/12 00:02:16;;;;;;;;;;;5.90;99.90;6.50;100042.00;;;;341857;28;87531;-86
2021/11/12 00:04:31;;;;;;;;;;;5.90;99.90;6.40;100034.00;;;;343288;28;83260;-86
2021/11/12 00:11:48;;;;;;;;;;;5.90;99.90;6.50;100032.00;;;;341912;28;88878;-86
2021/11/12 00:12:26;;;;;;;;;;;6.00;99.90;6.50;100016.00;;;;341847;28;82375;-86
2021/11/12 00:12:44;;;;;;;;;;;6.00;99.90;6.50;100007.00;;;;345986;28;84832;-86
2021/11/12 00:13:31;;;;;;;;;;;6.00;99.90;6.60;100017.00;;;;333769;29;85270;-86
2021/11/12 00:13:40;;;;;;;;;;;5.90;99.90;6.50;100013.00;;;;341996;28;83456;-86
2021/11/12 00:13:44;;;;;;;;;;;6.00;99.90;6.60;100013.00;;;;338270;28;83490;-86
2021/11/12 00:13:55;;;;;;;;;;;6.00;99.90;6.60;100014.00;;;;342915;28;85324;-86
2021/11/12 00:14:08;;;;;;;;;;;6.00;99.90;6.60;100014.00;;;;343224;28;83360;-86
2021/11/12 00:14:24;;;;;;;;;;;6.00;99.90;6.60;100009.00;;;;339289;28;85197;-86
2021/11/12 00:14:43;;;;;;;;;;;6.00;99.90;6.60;100013.00;;;;341840;28;83532;-86
2021/11/12 00:14:56;;;;;;;;;;;6.00;99.90;6.50;100008.00;;;;343018;28;83937;-86
2021/11/12 00:15:10;;;;;;;;;;;6.00;99.90;6.60;100011.00;;;;341736;28;83666;-86
2021/11/12 00:15:22;;;;;;;;;;;6.00;99.90;6.40;100013.00;;;;341587;28;86323;-86
2021/11/12 00:15:36;;;;;;;;;;;6.00;99.90;6.30;100011.00;;;;343256;28;83233;-86
2021/11/12 00:15:53;;;;;;;;;;;6.00;99.90;6.30;100020.00;;;;341700;28;84564;-86
2021/11/12 00:16:05;;;;;;;;;;;6.00;99.90;6.40;100009.00;;;;341897;28;82446;-86
2021/11/12 00:16:24;;;;;;;;;;;6.00;99.90;6.30;100007.00;;;;343267;28;84768;-86
2021/11/12 00:16:36;;;;;;;;;;;6.00;99.90;6.30;100008.00;;;;341947;28;83329;-86
2021/11/12 00:16:48;;;;;;;;;;;6.00;99.90;6.40;100006.00;;;;343112;28;85454;-86
2021/11/12 00:17:00;;;;;;;;;;;5.90;99.90;6.20;100016.00;;;;344788;28;82451;-86
2021/11/12 00:17:13;;;;;;;;;;;5.90;99.90;6.20;100006.00;;;;343959;28;87269;-86
2021/11/12 00:17:31;;;;;;;;;;;5.90;99.90;6.30;100012.00;;;;340110;28;83393;-86
2021/11/12 00:17:45;;;;;;;;;;;5.90;99.90;6.20;100018.00;;;;341615;28;85352;-86
2021/11/12 00:17:57;;;;;;;;;;;5.90;99.90;6.30;100011.00;;;;342075;28;82285;-86
2021/11/12 00:18:09;;;;;;;;;;;5.80;99.90;6.20;100006.00;;;;344605;28;83427;-86
2021/11/12 00:18:23;;;;;;;;;;;5.90;99.90;6.20;100012.00;;;;343355;28;82528;-87
2021/11/12 00:18:36;;;;;;;;;;;5.80;99.90;6.20;100015.00;;;;341834;28;85719;-86
2021/11/12 00:18:48;;;;;;;;;;;5.90;99.90;6.10;100022.00;;;;343382;28;82532;-86
2021/11/12 00:19:00;;;;;;;;;;;5.80;99.90;6.10;100005.00;;;;343225;28;84146;-86
2021/11/12 00:19:13;;;;;;;;;;;5.80;99.90;6.20;100011.00;;;;339322;28;83236;-86
2021/11/12 00:19:25;;;;;;;;;;;5.80;99.90;6.30;100011.00;;;;342958;28;87526;-86
2021/11/12 00:19:38;;;;;;;;;;;5.80;99.90;6.30;100011.00;;;;341979;28;82777;-86
2021/11/12 00:19:50;;;;;;;;;;;5.80;99.90;6.30;100006.00;;;;340557;28;84609;-86
2021/11/12 00:20:02;;;;;;;;;;;5.80;99.90;6.20;100007.00;;;;341542;28;83265;-86
2021/11/12 00:20:14;;;;;;;;;;;5.80;99.90;6.10;100009.00;;;;342699;28;88042;-86
2021/11/12 00:20:26;;;;;;;;;;;5.80;99.90;6.10;100011.00;;;;343261;28;83464;-86
2021/11/12 00:20:39;;;;;;;;;;;5.80;99.90;6.30;100006.00;;;;342105;28;80799;-86
2021/11/12 00:20:51;;;;;;;;;;;5.80;99.90;6.30;100007.00;;;;341573;28;82945;-86
2021/11/12 00:21:03;;;;;;;;;;;5.80;99.90;6.30;99995.00;;;;342113;28;83167;-87
2021/11/12 00:21:15;;;;;;;;;;;5.80;99.90;6.40;99999.00;;;;343038;28;87641;-86
2021/11/12 00:21:27;;;;;;;;;;;5.80;99.90;6.40;100010.00;;;;341946;28;85719;-86
2021/11/12 00:21:40;;;;;;;;;;;5.80;99.90;6.40;100006.00;;;;342921;28;87609;-86
2021/11/12 00:21:51;;;;;;;;;;;5.80;99.90;6.40;100002.00;;;;343341;28;85748;-86
2021/11/12 00:22:03;;;;;;;;;;;5.80;99.90;6.40;100015.00;;;;345903;28;86887;-86
2021/11/12 00:22:15;;;;;;;;;;;5.80;99.90;6.40;100004.00;;;;342019;28;82418;-86
2021/11/12 00:22:27;;;;;;;;;;;5.80;99.90;6.50;100009.00;;;;343200;28;84453;-86
2021/11/12 00:22:39;;;;;;;;;;;5.80;99.90;6.40;100010.00;;;;344740;28;85077;-86
2021/11/12 00:22:51;;;;;;;;;;;5.80;99.90;6.50;100000.00;;;;341801;28;84983;-86
2021/11/12 00:23:03;;;;;;;;;;;5.90;99.90;6.50;100001.00;;;;346203;28;82058;-87
2021/11/12 00:23:16;;;;;;;;;;;5.90;99.90;6.40;100001.00;;;;341329;28;88552;-86
2021/11/12 00:23:29;;;;;;;;;;;5.90;99.90;6.50;100003.00;;;;342281;28;83782;-86
2021/11/12 00:23:41;;;;;;;;;;;5.90;99.90;6.50;100003.00;;;;341681;28;88694;-86
2021/11/12 00:23:53;;;;;;;;;;;5.90;99.90;6.40;100009.00;;;;341966;28;82454;-86
2021/11/12 00:24:05;;;;;;;;;;;5.90;99.90;6.40;100006.00;;;;343213;28;85686;-86
2021/11/12 00:24:17;;;;;;;;;;;5.90;99.90;6.40;100004.00;;;;342276;28;86625;-86
2021/11/12 00:24:29;;;;;;;;;;;5.90;99.90;6.50;100012.00;;;;342900;28;88552;-86
2021/11/12 00:24:40;;;;;;;;;;;5.90;99.90;6.50;100004.00;;;;340781;28;81777;-86
2021/11/12 00:24:53;;;;;;;;;;;5.90;99.90;6.50;100008.00;;;;340299;28;87247;-86
2021/11/12 00:25:06;;;;;;;;;;;5.90;99.90;6.50;100011.00;;;;342121;28;84765;-86
2021/11/12 00:25:17;;;;;;;;;;;5.90;99.90;6.60;100001.00;;;;337766;28;87909;-86
2021/11/12 00:25:29;;;;;;;;;;;5.90;99.90;6.60;100003.00;;;;340725;28;83788;-86
2021/11/12 00:25:45;;;;;;;;;;;5.90;99.90;6.60;100009.00;;;;343061;28;85828;-86
2021/11/12 00:25:57;;;;;;;;;;;5.90;99.90;6.50;100002.00;;;;342056;28;84566;-86
2021/11/12 00:26:09;;;;;;;;;;;6.00;99.90;6.60;100005.00;;;;339118;28;85250;-87
2021/11/12 00:26:21;;;;;;;;;;;5.90;99.90;6.50;100012.00;;;;340248;28;89198;-86
2021/11/12 00:26:34;;;;;;;;;;;5.90;99.90;6.50;100001.00;;;;340181;28;86881;-86
2021/11/12 00:26:46;;;;;;;;;;;6.00;99.90;6.50;100007.00;;;;342617;28;82342;-87
2021/11/12 00:26:58;;;;;;;;;;;6.00;99.90;6.60;100010.00;;;;341764;28;86353;-86
2021/11/12 00:27:10;;;;;;;;;;;6.00;99.90;6.60;100009.00;;;;340730;28;84154;-86
2021/11/12 00:27:23;;;;;;;;;;;6.00;99.90;6.50;100014.00;;;;343364;28;88139;-86
2021/11/12 00:27:36;;;;;;;;;;;6.00;99.90;6.50;100007.00;;;;344728;28;85554;-86
2021/11/12 00:27:48;;;;;;;;;;;6.00;99.90;6.60;100005.00;;;;344550;28;85442;-86
2021/11/12 00:28:00;;;;;;;;;;;6.00;99.90;6.60;100009.00;;;;342063;28;86596;-86
2021/11/12 00:28:13;;;;;;;;;;;6.00;99.90;6.60;100005.00;;;;344243;28;85866;-86
2021/11/12 00:28:27;;;;;;;;;;;6.00;99.90;6.60;100000.00;;;;343582;28;83129;-87
2021/11/12 00:28:50;;;;;;;;;;;6.00;99.90;6.60;99995.00;;;;341821;28;85391;-86
2021/11/12 00:29:03;;;;;;;;;;;6.00;99.90;6.60;100003.00;;;;342036;28;85951;-86
2021/11/12 00:29:15;;;;;;;;;;;6.00;99.90;6.60;99994.00;;;;344476;28;88712;-86
2021/11/12 00:29:27;;;;;;;;;;;6.00;99.90;6.60;99998.00;;;;341716;28;82514;-87
2021/11/12 00:30:02;;;;;;;;;;;6.00;99.90;6.60;100006.00;;;;343129;28;85742;-87
2021/11/12 00:30:31;;;;;;;;;;;6.00;99.90;6.60;100012.00;;;;344628;28;85624;-86
2021/11/12 00:32:22;;;;;;;;;;;6.10;99.90;6.70;99999.00;;;;339354;28;83157;-87
2021/11/12 00:32:43;;;;;;;;;;;6.10;99.90;6.70;100006.00;;;;339881;28;87315;-86
2021/11/12 00:33:24;;;;;;;;;;;6.10;99.90;6.70;100003.00;;;;337615;28;87965;-86
2021/11/12 00:34:09;;;;;;;;;;;6.10;99.90;6.70;100007.00;;;;340482;28;85144;-86
2021/11/12 00:35:04;;;;;;;;;;;6.10;99.90;6.40;100003.00;;;;339116;28;85870;-86
2021/11/12 00:35:25;;;;;;;;;;;6.10;99.90;6.30;100012.00;;;;340929;28;83145;-86
2021/11/12 00:35:45;;;;;;;;;;;6.00;99.90;6.50;100011.00;;;;338864;28;86391;-86
2021/11/12 00:36:42;;;;;;;;;;;6.10;99.90;6.60;100010.00;;;;337685;28;85947;-86
2021/11/12 00:37:37;;;;;;;;;;;6.00;99.90;6.50;100013.00;;;;337718;28;86342;-87
2021/11/12 00:37:53;;;;;;;;;;;6.00;99.90;6.40;100016.00;;;;337895;28;83498;-86
2021/11/12 00:38:17;;;;;;;;;;;6.10;99.90;6.50;100020.00;;;;339080;28;87426;-86
2021/11/12 00:38:35;;;;;;;;;;;6.00;99.90;6.60;100016.00;;;;336857;28;85980;-87
2021/11/12 00:38:55;;;;;;;;;;;6.00;99.90;6.60;100011.00;;;;335035;29;85619;-86
2021/11/12 00:39:21;;;;;;;;;;;6.00;99.90;6.60;100008.00;;;;338051;28;82913;-86
2021/11/12 00:39:39;;;;;;;;;;;6.00;99.90;6.60;100007.00;;;;336247;28;86798;-86
2021/11/12 00:40:06;;;;;;;;;;;6.00;99.90;6.60;100012.00;;;;338025;28;81690;-86
2021/11/12 00:40:26;;;;;;;;;;;6.00;99.90;6.60;100012.00;;;;337749;28;85532;-86
2021/11/12 00:41:20;;;;;;;;;;;6.00;99.90;6.60;100004.00;;;;339078;28;87734;-86
2021/11/12 00:41:39;;;;;;;;;;;6.00;99.90;6.50;100006.00;;;;335155;29;83011;-86
2021/11/12 00:43:26;;;;;;;;;;;6.10;99.90;6.50;100019.00;;;;336224;28;88088;-86
2021/11/12 00:43:46;;;;;;;;;;;6.10;99.90;6.60;100020.00;;;;337726;28;82167;-86
2021/11/12 00:44:10;;;;;;;;;;;6.10;99.90;6.70;100017.00;;;;337555;28;84419;-86
2021/11/12 00:44:41;;;;;;;;;;;6.10;99.90;6.70;100008.00;;;;336417;28;85228;-86
2021/11/12 00:45:05;;;;;;;;;;;6.10;99.90;6.70;100012.00;;;;337739;28;85918;-86
2021/11/12 00:45:20;;;;;;;;;;;6.10;99.90;6.70;100008.00;;;;338149;28;84486;-86
2021/11/12 00:45:36;;;;;;;;;;;6.10;99.90;6.60;100013.00;;;;337652;28;85383;-86
2021/11/12 00:45:57;;;;;;;;;;;6.10;99.90;6.60;100009.00;;;;338098;28;84107;-86
2021/11/12 00:46:15;;;;;;;;;;;6.10;99.90;6.60;100016.00;;;;337695;28;85256;-86
2021/11/12 00:46:51;;;;;;;;;;;6.10;99.90;6.60;100017.00;;;;336515;28;85331;-87
2021/11/12 00:47:17;;;;;;;;;;;6.10;99.90;6.70;100020.00;;;;337934;28;82726;-87
2021/11/12 00:47:57;;;;;;;;;;;6.10;99.90;6.80;100024.00;;;;338391;28;83899;-86
2021/11/12 00:48:18;;;;;;;;;;;6.10;99.90;6.70;100017.00;;;;338981;28;86780;-86
2021/11/12 00:48:34;;;;;;;;;;;6.10;99.90;6.80;100017.00;;;;336551;28;85175;-86
2021/11/12 00:48:51;;;;;;;;;;;6.10;99.90;6.70;100021.00;;;;334888;29;88273;-86
2021/11/12 00:49:08;;;;;;;;;;;6.10;99.90;6.70;100021.00;;;;336704;28;82217;-86
2021/11/12 00:49:24;;;;;;;;;;;6.10;99.90;6.60;100020.00;;;;335210;29;84811;-86
2021/11/12 00:49:40;;;;;;;;;;;6.10;99.90;6.50;100020.00;;;;336635;28;82506;-86
2021/11/12 00:50:29;;;;;;;;;;;6.10;99.90;6.50;100022.00;;;;335218;29;85622;-87
2021/11/12 00:51:41;;;;;;;;;;;6.00;99.90;6.20;100024.00;;;;336441;28;84451;-86
2021/11/12 00:51:47;;;;;;;;;;;6.00;99.90;6.20;100021.00;;;;337881;28;83762;-86
2021/11/12 00:52:11;;;;;;;;;;;6.00;99.90;6.20;100023.00;;;;335144;29;85123;-86
2021/11/12 00:53:42;;;;;;;;;;;5.90;99.90;6.30;100012.00;;;;339054;28;83951;-86
2021/11/12 00:54:06;;;;;;;;;;;5.90;99.90;6.20;100009.00;;;;336317;28;88013;-86
2021/11/12 00:54:18;;;;;;;;;;;5.90;99.90;6.10;100009.00;;;;335288;29;82810;-86
2021/11/12 00:54:30;;;;;;;;;;;5.90;99.90;6.10;100016.00;;;;337548;28;88211;-86
2021/11/12 00:54:42;;;;;;;;;;;5.80;99.90;6.10;100013.00;;;;338057;28;83788;-86
2021/11/12 00:54:54;;;;;;;;;;;5.80;99.90;6.10;100013.00;;;;338899;28;87774;-86
2021/11/12 00:55:06;;;;;;;;;;;5.80;99.90;6.10;100005.00;;;;339058;28;85560;-86
2021/11/12 00:55:24;;;;;;;;;;;5.80;99.90;6.20;100010.00;;;;338894;28;85136;-86
2021/11/12 00:55:39;;;;;;;;;;;5.80;99.90;6.20;100017.00;;;;337973;28;83658;-86
2021/11/12 00:55:51;;;;;;;;;;;5.80;99.90;6.20;100013.00;;;;336441;28;85173;-86
2021/11/12 00:56:03;;;;;;;;;;;5.80;99.90;6.30;100010.00;;;;338135;28;81723;-86
2021/11/12 00:56:15;;;;;;;;;;;5.80;99.90;6.30;100015.00;;;;338749;28;87867;-86
2021/11/12 00:56:28;;;;;;;;;;;5.80;99.90;6.30;100008.00;;;;336765;28;84897;-86
2021/11/12 00:56:40;;;;;;;;;;;5.80;99.90;6.30;100011.00;;;;336472;28;84458;-87
2021/11/12 00:56:52;;;;;;;;;;;5.80;99.90;6.30;100008.00;;;;337934;28;83401;-86
2021/11/12 00:57:04;;;;;;;;;;;5.80;99.90;6.30;100001.00;;;;336266;28;86726;-86
2021/11/12 00:57:16;;;;;;;;;;;5.80;99.90;6.40;100012.00;;;;337715;28;84811;-86
2021/11/12 00:57:29;;;;;;;;;;;5.80;99.90;6.50;100009.00;;;;338854;28;86412;-86
2021/11/12 00:57:42;;;;;;;;;;;5.80;99.90;6.50;100017.00;;;;337710;28;86539;-87
2021/11/12 00:57:55;;;;;;;;;;;5.90;99.90;6.50;100005.00;;;;336480;28;85232;-86
2021/11/12 00:58:08;;;;;;;;;;;5.90;99.90;6.50;100016.00;;;;337976;28;83573;-86
2021/11/12 00:58:20;;;;;;;;;;;5.90;99.90;6.50;100021.00;;;;338895;28;88019;-86
2021/11/12 00:58:32;;;;;;;;;;;5.90;99.90;6.50;100014.00;;;;338055;28;82599;-86
2021/11/12 00:58:44;;;;;;;;;;;5.90;99.90;6.40;100009.00;;;;336198;28;87837;-86
2021/11/12 00:58:58;;;;;;;;;;;5.90;99.90;6.50;100006.00;;;;336746;28;83015;-86
2021/11/12 00:59:10;;;;;;;;;;;5.90;99.90;6.40;100012.00;;;;336153;28;87027;-86
2021/11/12 00:59:22;;;;;;;;;;;5.90;99.90;6.40;100003.00;;;;337719;28;83519;-86
2021/11/12 00:59:34;;;;;;;;;;;5.90;99.90;6.40;100014.00;;;;336174;28;86529;-86
2021/11/12 00:59:45;;;;;;;;;;;5.90;99.90;6.40;100005.00;;;;338006;28;84011;-87
2021/11/12 00:59:58;;;;;;;;;;;5.90;99.90;6.40;100004.00;;;;336395;28;84707;-86
2021/11/12 01:00:10;;;;;;;;;;;5.90;99.90;6.40;100007.00;;;;333871;29;83290;-86
2021/11/12 01:00:23;;;;;;;;;;;5.90;99.90;6.40;100007.00;;;;335854;28;85915;-86
2021/11/12 01:00:35;;;;;;;;;;;5.90;99.90;6.30;100007.00;;;;338088;28;82799;-86
2021/11/12 01:00:47;;;;;;;;;;;5.90;99.90;6.40;100007.00;;;;336357;28;85663;-86
2021/11/12 01:00:59;;;;;;;;;;;5.90;99.90;6.30;99999.00;;;;339247;28;86060;-86
2021/11/12 01:01:11;;;;;;;;;;;5.90;99.90;6.40;100009.00;;;;337664;28;87788;-86
2021/11/12 01:01:25;;;;;;;;;;;5.90;99.90;6.50;99995.00;;;;335498;29;80940;-86
2021/11/12 01:01:38;;;;;;;;;;;5.90;99.90;6.50;100013.00;;;;336367;28;85624;-86
2021/11/12 01:01:51;;;;;;;;;;;5.90;99.90;6.60;100008.00;;;;337823;28;86175;-87
2021/11/12 01:02:03;;;;;;;;;;;5.90;99.90;6.60;100009.00;;;;336465;28;85951;-86
2021/11/12 01:02:15;;;;;;;;;;;5.90;99.90;6.60;100011.00;;;;337322;28;84918;-87
2021/11/12 01:02:28;;;;;;;;;;;5.90;99.90;6.60;100009.00;;;;337471;28;85780;-86
2021/11/12 01:02:40;;;;;;;;;;;6.00;99.90;6.60;100007.00;;;;336785;28;81704;-86
2021/11/12 01:02:52;;;;;;;;;;;6.00;99.90;6.60;100014.00;;;;338692;28;88114;-86
2021/11/12 01:03:04;;;;;;;;;;;6.00;99.90;6.50;100010.00;;;;339342;28;83484;-86
2021/11/12 01:03:18;;;;;;;;;;;6.00;99.90;6.50;100015.00;;;;335777;28;85633;-86
2021/11/12 01:03:30;;;;;;;;;;;6.00;99.90;6.50;100007.00;;;;336713;28;83547;-86
2021/11/12 01:03:43;;;;;;;;;;;6.00;99.90;6.50;100006.00;;;;337553;28;85664;-86
2021/11/12 01:03:55;;;;;;;;;;;6.00;99.90;6.50;100014.00;;;;339375;28;82927;-86
2021/11/12 01:04:09;;;;;;;;;;;6.00;99.90;6.50;100017.00;;;;337538;28;88360;-86
2021/11/12 01:04:21;;;;;;;;;;;6.00;99.90;6.50;100021.00;;;;338054;28;82144;-86
2021/11/12 01:04:34;;;;;;;;;;;6.00;99.90;6.50;100011.00;;;;338957;28;86520;-86
2021/11/12 01:04:46;;;;;;;;;;;6.00;99.90;6.50;100020.00;;;;336748;28;82731;-86
2021/11/12 01:04:58;;;;;;;;;;;6.00;99.90;6.50;100005.00;;;;335130;29;84171;-86
2021/11/12 01:05:11;;;;;;;;;;;6.00;99.90;6.50;100019.00;;;;337968;28;83617;-86
2021/11/12 01:05:23;;;;;;;;;;;6.00;99.90;6.50;100020.00;;;;337446;28;84962;-86
2021/11/12 01:05:36;;;;;;;;;;;6.00;99.90;6.50;100020.00;;;;337651;28;83640;-86
2021/11/12 01:05:48;;;;;;;;;;;6.00;99.90;6.60;100005.00;;;;336345;28;87334;-86
2021/11/12 01:06:00;;;;;;;;;;;6.00;99.90;6.60;100018.00;;;;335477;29;82169;-87
2021/11/12 01:06:12;;;;;;;;;;;6.00;99.90;6.60;100008.00;;;;336344;28;84588;-87
2021/11/12 01:06:24;;;;;;;;;;;6.00;99.90;6.60;100010.00;;;;338038;28;82932;-87
2021/11/12 01:06:37;;;;;;;;;;;6.00;99.90;6.50;100012.00;;;;337572;28;88140;-86
2021/11/12 01:06:49;;;;;;;;;;;6.00;99.90;6.50;100007.00;;;;336778;28;82903;-86
2021/11/12 01:07:01;;;;;;;;;;;6.00;99.90;6.40;100002.00;;;;336440;28;85461;-86
2021/11/12 01:07:13;;;;;;;;;;;6.00;99.90;6.40;100000.00;;;;337776;28;85040;-86
2021/11/12 01:07:24;;;;;;;;;;;6.00;99.90;6.50;100003.00;;;;338900;28;86781;-86
2021/11/12 01:07:37;;;;;;;;;;;6.00;99.90;6.40;100001.00;;;;336541;28;84047;-86
2021/11/12 01:07:49;;;;;;;;;;;6.00;99.90;6.40;100002.00;;;;336263;28;86166;-86
2021/11/12 01:08:01;;;;;;;;;;;6.00;99.90;6.40;99994.00;;;;339096;28;85933;-86
2021/11/12 01:08:12;;;;;;;;;;;6.00;99.90;6.40;99993.00;;;;338233;28;87526;-86
2021/11/12 01:08:25;;;;;;;;;;;6.00;99.90;6.60;99995.00;;;;337463;28;80978;-86
2021/11/12 01:08:36;;;;;;;;;;;6.00;99.90;6.60;99988.00;;;;337545;28;85944;-86
2021/11/12 01:08:48;;;;;;;;;;;6.00;99.90;6.60;99992.00;;;;339045;28;85117;-86
2021/11/12 01:09:00;;;;;;;;;;;6.00;99.90;6.60;99992.00;;;;336324;28;88615;-86
2021/11/12 01:09:14;;;;;;;;;;;6.00;99.90;6.50;99987.00;;;;335383;29;82774;-86
2021/11/12 01:09:26;;;;;;;;;;;6.00;99.90;6.50;99993.00;;;;335072;28;85548;-86
2021/11/12 01:09:38;;;;;;;;;;;6.00;99.90;6.50;99981.00;;;;335413;29;82375;-86
2021/11/12 01:09:51;;;;;;;;;;;6.00;99.90;6.50;99989.00;;;;336500;28;85480;-87
2021/11/12 01:10:04;;;;;;;;;;;6.00;99.90;6.50;99983.00;;;;335415;29;82615;-86
2021/11/12 01:10:17;;;;;;;;;;;6.00;99.90;6.50;99985.00;;;;335104;29;85599;-86
2021/11/12 01:10:33;;;;;;;;;;;6.00;99.90;6.50;99983.00;;;;336512;28;85518;-86
2021/11/12 01:10:45;;;;;;;;;;;6.00;99.90;6.50;99985.00;;;;338980;28;86627;-86
2021/11/12 01:10:57;;;;;;;;;;;6.00;99.90;6.50;99983.00;;;;339380;28;85010;-86
2021/11/12 01:11:10;;;;;;;;;;;6.00;99.90;6.50;99989.00;;;;338970;28;88985;-86
2021/11/12 01:11:22;;;;;;;;;;;6.00;99.90;6.70;99983.00;;;;338939;28;86122;-87
2021/11/12 01:11:34;;;;;;;;;;;6.00;99.90;6.70;99988.00;;;;338604;28;87662;-87
2021/11/12 01:11:47;;;;;;;;;;;6.10;99.90;6.70;99987.00;;;;341271;28;81744;-86
2021/11/12 01:11:59;;;;;;;;;;;6.10;99.90;6.80;99977.00;;;;339054;28;87279;-86
2021/11/12 01:12:10;;;;;;;;;;;6.10;99.90;6.70;99979.00;;;;339143;28;86840;-86
2021/11/12 01:12:23;;;;;;;;;;;6.10;99.90;6.80;99983.00;;;;337689;28;84992;-87
2021/11/12 01:12:35;;;;;;;;;;;6.10;99.90;6.80;99981.00;;;;339301;28;83383;-86
2021/11/12 01:12:47;;;;;;;;;;;6.10;99.90;6.80;99985.00;;;;338900;28;88034;-86
2021/11/12 01:12:59;;;;;;;;;;;6.10;99.90;6.80;99984.00;;;;337756;28;86061;-87
2021/11/12 01:13:11;;;;;;;;;;;6.10;99.90;6.80;99982.00;;;;340282;28;86298;-86
2021/11/12 01:13:24;;;;;;;;;;;6.20;99.90;6.70;99979.00;;;;340529;28;85905;-86
2021/11/12 01:13:36;;;;;;;;;;;6.20;99.90;6.80;99982.00;;;;338975;28;86954;-86
2021/11/12 01:13:48;;;;;;;;;;;6.20;99.90;6.80;99985.00;;;;340779;28;82007;-86
2021/11/12 01:13:59;;;;;;;;;;;6.20;99.90;6.70;99982.00;;;;339169;28;85560;-86
2021/11/12 01:14:12;;;;;;;;;;;6.20;99.90;6.70;99984.00;;;;341842;28;82299;-86
2021/11/12 01:14:25;;;;;;;;;;;6.20;99.90;6.80;99986.00;;;;341516;28;85493;-86
2021/11/12 01:14:36;;;;;;;;;;;6.20;99.90;6.80;99982.00;;;;339289;28;84820;-86
2021/11/12 01:14:48;;;;;;;;;;;6.20;99.90;6.80;99983.00;;;;339896;28;84856;-86
2021/11/12 01:15:00;;;;;;;;;;;6.20;99.90;6.80;99980.00;;;;339137;28;82009;-86
2021/11/12 01:15:15;;;;;;;;;;;6.20;99.90;6.80;99985.00;;;;340416;28;86120;-86
2021/11/12 01:15:27;;;;;;;;;;;6.20;99.90;6.60;99989.00;;;;339175;28;86315;-86
2021/11/12 01:15:38;;;;;;;;;;;6.20;99.90;6.50;99984.00;;;;338996;28;88682;-86
2021/11/12 01:15:50;;;;;;;;;;;6.20;99.90;6.60;99986.00;;;;339205;28;84728;-86
2021/11/12 01:16:03;;;;;;;;;;;6.20;99.90;6.60;99989.00;;;;345928;28;87609;-86
2021/11/12 01:16:16;;;;;;;;;;;6.20;99.90;6.60;99987.00;;;;346014;28;86140;-86
2021/11/12 01:16:28;;;;;;;;;;;6.10;99.90;6.70;99981.00;;;;344551;28;85328;-86
2021/11/12 01:16:40;;;;;;;;;;;6.20;99.90;6.60;99980.00;;;;346089;28;83782;-86
2021/11/12 01:16:52;;;;;;;;;;;6.10;99.90;6.60;99990.00;;;;344281;28;86137;-86
2021/11/12 01:17:04;;;;;;;;;;;6.20;99.90;6.70;99990.00;;;;346101;28;85339;-86
2021/11/12 01:17:16;;;;;;;;;;;6.10;99.90;6.70;99988.00;;;;346718;28;85617;-86
2021/11/12 01:17:28;;;;;;;;;;;6.10;99.90;6.80;99989.00;;;;344584;28;83443;-86
2021/11/12 01:17:40;;;;;;;;;;;6.20;99.90;6.80;99997.00;;;;344537;28;84049;-86
2021/11/12 01:17:53;;;;;;;;;;;6.20;99.90;6.70;99997.00;;;;346147;28;82162;-86
2021/11/12 01:18:05;;;;;;;;;;;6.10;99.90;6.80;99987.00;;;;344200;28;85349;-86
2021/11/12 01:18:16;;;;;;;;;;;6.20;99.90;6.70;99986.00;;;;344762;28;83641;-86
2021/11/12 01:18:29;;;;;;;;;;;6.20;99.90;6.60;99995.00;;;;344350;28;86396;-86
2021/11/12 01:18:42;;;;;;;;;;;6.10;99.90;6.60;99989.00;;;;344785;28;82256;-87
2021/11/12 01:18:53;;;;;;;;;;;6.20;99.90;6.60;99992.00;;;;345851;28;85645;-86
2021/11/12 01:19:06;;;;;;;;;;;6.10;99.90;6.60;99995.00;;;;344755;28;81990;-86
2021/11/12 01:19:18;;;;;;;;;;;6.10;99.90;6.60;99992.00;;;;344397;28;85525;-86
2021/11/12 01:19:30;;;;;;;;;;;6.10;99.90;6.60;99984.00;;;;344751;28;83131;-85
2021/11/12 01:19:42;;;;;;;;;;;6.10;99.90;6.60;99989.00;;;;341745;28;84717;-86
2021/11/12 01:19:54;;;;;;;;;;;6.10;99.90;6.50;99992.00;;;;343531;28;81929;-86
2021/11/12 01:20:07;;;;;;;;;;;6.10;99.90;6.60;99985.00;;;;345871;28;84498;-86
2021/11/12 01:20:19;;;;;;;;;;;6.10;99.90;6.60;99990.00;;;;343357;28;82387;-85
2021/11/12 01:20:31;;;;;;;;;;;6.10;99.90;6.60;99987.00;;;;342458;28;83411;-85
2021/11/12 01:20:43;;;;;;;;;;;6.10;99.90;6.60;99987.00;;;;345733;28;84140;-86
2021/11/12 01:20:55;;;;;;;;;;;6.10;99.90;6.60;99990.00;;;;342925;28;86681;-86
2021/11/12 01:21:11;;;;;;;;;;;6.10;99.90;6.60;99986.00;;;;344631;28;84867;-86
2021/11/12 01:21:24;;;;;;;;;;;6.10;99.90;6.60;99992.00;;;;345418;28;87183;-86
2021/11/12 01:21:37;;;;;;;;;;;6.10;99.90;6.50;99996.00;;;;343398;28;82979;-86
2021/11/12 01:21:49;;;;;;;;;;;6.10;99.90;6.40;99982.00;;;;344511;28;83760;-86
2021/11/12 01:22:01;;;;;;;;;;;6.00;99.90;6.50;99984.00;;;;345963;28;84727;-87
2021/11/12 01:22:12;;;;;;;;;;;6.00;99.90;6.40;99988.00;;;;343041;28;86552;-86
2021/11/12 01:22:24;;;;;;;;;;;6.00;99.90;6.50;99989.00;;;;346176;28;83454;-85
2021/11/12 01:22:36;;;;;;;;;;;6.00;99.90;6.30;99982.00;;;;343205;28;85383;-86
2021/11/12 01:22:49;;;;;;;;;;;6.00;99.90;6.40;99978.00;;;;344591;28;85238;-85
2021/11/12 01:23:01;;;;;;;;;;;6.00;99.90;6.40;99984.00;;;;344616;28;84503;-87
2021/11/12 01:23:14;;;;;;;;;;;6.00;99.90;6.40;99983.00;;;;344647;28;83131;-86
2021/11/12 01:23:26;;;;;;;;;;;6.00;99.90;6.50;99990.00;;;;344497;28;85459;-86
2021/11/12 01:23:39;;;;;;;;;;;6.00;99.90;6.60;99984.00;;;;346169;28;83742;-86
2021/11/12 01:23:52;;;;;;;;;;;6.00;99.90;6.40;99985.00;;;;344549;28;84472;-86
2021/11/12 01:24:04;;;;;;;;;;;6.00;99.90;6.40;99982.00;;;;346173;28;83981;-86
2021/11/12 01:24:16;;;;;;;;;;;5.90;99.90;6.50;99976.00;;;;344472;28;86283;-86
2021/11/12 01:24:28;;;;;;;;;;;5.90;99.90;6.50;99984.00;;;;344396;28;83793;-86
2021/11/12 01:24:40;;;;;;;;;;;5.90;99.90;6.40;99975.00;;;;344508;28;85980;-87
2021/11/12 01:24:52;;;;;;;;;;;6.00;99.90;6.50;99983.00;;;;344754;28;85705;-86
2021/11/12 01:25:05;;;;;;;;;;;5.90;99.90;6.50;99976.00;;;;344523;28;85369;-86
2021/11/12 01:25:19;;;;;;;;;;;5.90;99.90;6.60;99978.00;;;;344796;28;83156;-86
2021/11/12 01:25:31;;;;;;;;;;;5.90;99.90;6.60;99980.00;;;;344569;28;83025;-86
2021/11/12 01:25:43;;;;;;;;;;;6.00;99.90;6.40;99977.00;;;;345612;28;82540;-86
2021/11/12 01:25:54;;;;;;;;;;;5.90;99.90;6.60;99973.00;;;;344283;28;87950;-86
2021/11/12 01:26:06;;;;;;;;;;;6.00;99.90;6.50;99980.00;;;;344549;28;83592;-86
2021/11/12 01:26:19;;;;;;;;;;;6.00;99.90;6.30;99979.00;;;;343941;28;86647;-86
2021/11/12 01:26:31;;;;;;;;;;;6.00;99.90;6.30;99970.00;;;;346113;28;82114;-86
2021/11/12 01:26:42;;;;;;;;;;;6.00;99.90;6.50;99967.00;;;;344440;28;86246;-86
2021/11/12 01:26:54;;;;;;;;;;;5.90;99.90;6.30;99977.00;;;;344581;28;84669;-87
2021/11/12 01:27:07;;;;;;;;;;;5.90;99.90;6.30;99977.00;;;;344293;28;86555;-86
2021/11/12 01:27:19;;;;;;;;;;;5.90;99.90;6.40;99977.00;;;;343148;28;82292;-86
2021/11/12 01:27:32;;;;;;;;;;;5.90;99.90;6.50;99981.00;;;;344191;28;85744;-86
2021/11/12 01:27:44;;;;;;;;;;;5.90;99.90;6.40;99981.00;;;;343474;28;83347;-86
2021/11/12 01:27:56;;;;;;;;;;;5.90;99.90;6.20;99981.00;;;;345845;28;84976;-86
2021/11/12 01:28:08;;;;;;;;;;;5.90;99.90;6.20;99980.00;;;;343433;28;82261;-86
2021/11/12 01:28:20;;;;;;;;;;;5.90;99.90;6.20;99979.00;;;;344543;28;85692;-86
2021/11/12 01:28:33;;;;;;;;;;;5.90;99.90;6.30;99973.00;;;;343382;28;83523;-86
2021/11/12 01:28:45;;;;;;;;;;;5.90;99.90;6.40;99976.00;;;;345913;28;84627;-86
2021/11/12 01:28:56;;;;;;;;;;;5.90;99.90;6.40;99981.00;;;;345980;28;83607;-86
2021/11/12 01:29:08;;;;;;;;;;;5.90;99.90;6.40;99976.00;;;;344611;28;84831;-86
2021/11/12 01:29:20;;;;;;;;;;;5.90;99.90;6.40;99978.00;;;;341774;28;83158;-86
2021/11/12 01:29:32;;;;;;;;;;;5.90;99.90;6.50;99980.00;;;;342916;28;85483;-86
2021/11/12 01:29:44;;;;;;;;;;;5.90;99.90;6.50;99981.00;;;;343473;28;83669;-86
2021/11/12 01:29:56;;;;;;;;;;;5.90;99.90;6.40;99975.00;;;;344173;28;86523;-86
2021/11/12 01:30:10;;;;;;;;;;;5.90;99.90;6.50;99988.00;;;;341851;28;83274;-86